Stone Cabin, Nevada Weather observations

Data are for observation ending at time listed.
 Day   Time    Ave.   Ave.  Ave.  Vector   Max.   Stn.    Total    Solar   Ave.  
  of    of     Air    Rel.  Wind   Wind    Wind   Baro.  Precip.   Rad.    Soil  
Year   Day     Temp.  Hum.  Speed  Dir.    Gust   Pres.                    Temp. 
2014   (PST)    F      %     mph   deg.    mph     mb.     in.     W/m2     F   
------------------------------------------------------------------------------
 109   16:00   69.7    19    6.9   238     22.7    820     0.00     399    59.6
 109   17:00   69.7    19    6.0   227     15.1    820     0.00     277    58.8
 109   18:00   68.3    20    5.5   210     13.4    820     0.00     123    58.0
 109   19:00   63.0    24    2.4   216     10.4    820     0.00       8    57.1
 109   20:00   56.9    29    1.4   200      5.2    818     0.00       0    56.0
 109   21:00   54.1    33    1.3   313      7.9    819     0.00       0    54.8
 109   22:00   57.2    32    2.4   178      8.0    820     0.00       0    54.0
 109   23:00   53.5    37    1.9   284      7.7    820     0.00       0    53.4
 110    0:00   44.9    45    3.2   334      5.9    821     0.00       0    52.8
 110    1:00   41.8    48    2.1   322      3.7    821     0.00       0    52.1
 110    2:00   39.1    51    1.1   321      4.2    819     0.00       0    51.5
 110    3:00   38.3    53    1.9   317      4.7    818     0.00       0    50.8
 110    4:00   36.4    57    2.0   325      3.9    821     0.00       0    50.1
 110    5:00   36.1    57    1.5   322      3.7    820     0.00       0    49.5
 110    6:00   34.4    58    1.8   317      4.5    821     0.00      27    49.0
 110    7:00   41.7    49    1.1   312      4.0    822     0.00     155    48.7
 110    8:00   54.4    32    1.3   323      4.5    823     0.00     338    49.2
 110    9:00   60.8    25    1.5   324      4.5    824     0.00     587    50.6
 110   10:00   64.8    20    2.6   142      8.4    823     0.00     818    53.0
 110   11:00   67.0    16    3.3   194     14.1    825     0.00     914    56.2
 110   12:00   69.2    16    3.2   130     12.8    824     0.00     944    59.3
 110   13:00   70.3    12    5.8   232     17.3    825     0.00     966    60.8
 110   14:00   71.0    12    6.2   246     15.4    824     0.00     873    60.4
 110   15:00   71.0    10    6.6   276     17.5    822     0.00     733    60.9

Return to Stone Cabin, Nevada graphs page.


Western Regional Climate Center,wrcc@dri.edu